createdAt,value
2023-05-06T00:01:46.468Z,1.50
2023-05-06T00:04:34.884Z,1.50
2023-05-06T00:07:23.387Z,1.53
2023-05-06T00:10:11.802Z,1.60
2023-05-06T00:13:01.694Z,1.40
2023-05-06T00:15:50.183Z,1.60
2023-05-06T00:18:38.536Z,1.30
2023-05-06T00:21:28.300Z,1.73
2023-05-06T00:24:16.681Z,1.67
2023-05-06T00:27:05.084Z,1.77
2023-05-06T00:29:54.865Z,1.40
2023-05-06T00:32:43.381Z,1.73
2023-05-06T00:35:31.873Z,1.83
2023-05-06T00:38:20.543Z,1.40
2023-05-06T00:41:09.981Z,1.50
2023-05-06T00:43:58.420Z,1.60
2023-05-06T00:46:48.199Z,1.60
2023-05-06T00:49:36.617Z,1.60
2023-05-06T00:52:25.057Z,1.60
2023-05-06T00:55:13.464Z,1.73
2023-05-06T00:58:02.092Z,1.40
2023-05-06T01:00:52.335Z,1.80
2023-05-06T01:03:42.317Z,1.50
2023-05-06T01:06:35.878Z,1.50
2023-05-06T01:09:29.867Z,1.53
2023-05-06T01:12:22.431Z,1.50
2023-05-06T01:15:15.095Z,1.70
2023-05-06T01:18:07.843Z,2.00
2023-05-06T01:20:57.998Z,1.50
2023-05-06T01:23:53.399Z,1.70
2023-05-06T01:26:42.999Z,1.47
2023-05-06T01:29:31.501Z,2.27
2023-05-06T01:32:27.664Z,1.60
2023-05-06T01:35:19.128Z,1.70
2023-05-06T01:38:15.585Z,1.57
2023-05-06T01:41:05.843Z,1.40
2023-05-06T01:43:55.297Z,1.50
2023-05-06T01:46:44.501Z,2.07
2023-05-06T01:49:34.139Z,1.50
2023-05-06T01:52:22.944Z,1.47
2023-05-06T01:55:11.992Z,1.50
2023-05-06T01:58:02.470Z,2.00
2023-05-06T02:00:50.885Z,1.43
2023-05-06T02:03:39.459Z,1.70
2023-05-06T02:06:28.079Z,1.70
2023-05-06T02:09:16.607Z,1.80
2023-05-06T02:12:11.657Z,1.50
2023-05-06T02:15:01.437Z,1.70
2023-05-06T02:17:50.314Z,1.80
2023-05-06T02:20:38.887Z,2.13
2023-05-06T02:23:27.682Z,1.90
2023-05-06T02:26:16.515Z,1.57
2023-05-06T02:29:04.927Z,1.80
2023-05-06T02:31:54.759Z,1.80
2023-05-06T02:34:43.126Z,1.70
2023-05-06T02:37:31.514Z,1.87
2023-05-06T02:40:21.883Z,1.97
2023-05-06T02:43:10.256Z,1.90
2023-05-06T02:46:18.262Z,1.80
2023-05-06T02:49:27.010Z,2.20
2023-05-06T02:52:15.518Z,1.60
2023-05-06T02:55:04.176Z,1.80
2023-05-06T02:57:52.571Z,1.73
2023-05-06T03:00:40.939Z,1.73
2023-05-06T03:03:29.352Z,2.10
2023-05-06T03:06:19.130Z,1.90
2023-05-06T03:09:08.691Z,1.80
2023-05-06T03:11:57.858Z,1.40
2023-05-06T03:14:46.415Z,1.80
2023-05-06T03:17:34.854Z,1.70
2023-05-06T03:20:25.819Z,1.80
2023-05-06T03:23:18.471Z,1.70
2023-05-06T03:26:08.666Z,1.93
2023-05-06T03:28:57.548Z,1.97
2023-05-06T03:31:46.585Z,2.20
2023-05-06T03:34:35.084Z,1.67
2023-05-06T03:37:23.759Z,1.77
2023-05-06T03:40:17.638Z,2.20
2023-05-06T03:43:06.597Z,2.00
2023-05-06T03:45:55.429Z,2.03
2023-05-06T03:48:44.699Z,2.07
2023-05-06T03:51:36.560Z,2.10
2023-05-06T03:54:25.425Z,1.90
2023-05-06T03:57:15.358Z,1.90
2023-05-06T04:00:05.507Z,1.50
2023-05-06T04:03:04.604Z,1.70
2023-05-06T04:06:00.943Z,2.07
2023-05-06T04:08:49.610Z,2.50
2023-05-06T04:11:39.481Z,2.20
2023-05-06T04:14:31.941Z,1.80
2023-05-06T04:17:20.884Z,1.87
2023-05-06T04:20:11.946Z,1.67
2023-05-06T04:23:02.776Z,1.80
2023-05-06T04:25:51.419Z,1.80
2023-05-06T04:28:41.862Z,1.80
2023-05-06T04:31:34.434Z,1.90
2023-05-06T04:34:27.786Z,1.70
2023-05-06T04:37:18.908Z,1.70
2023-05-06T04:40:13.750Z,1.87
2023-05-06T04:43:05.238Z,2.60
2023-05-06T04:45:54.386Z,2.20
2023-05-06T04:48:49.006Z,2.10
2023-05-06T04:51:38.286Z,1.60
2023-05-06T04:54:27.089Z,1.80
2023-05-06T04:57:15.479Z,1.60
2023-05-06T05:00:07.831Z,2.27
2023-05-06T05:02:56.504Z,2.00
2023-05-06T05:05:46.220Z,1.60
2023-05-06T05:08:40.875Z,2.20
2023-05-06T05:11:30.497Z,1.80
2023-05-06T05:14:20.513Z,2.20
2023-05-06T05:17:09.045Z,2.30
2023-05-06T05:19:58.983Z,2.03
2023-05-06T05:22:49.963Z,1.70
2023-05-06T05:25:38.469Z,2.30
2023-05-06T05:28:27.498Z,1.90
2023-05-06T05:31:17.068Z,2.50
2023-05-06T05:34:06.071Z,2.37
2023-05-06T05:36:54.400Z,2.30
2023-05-06T05:39:44.202Z,1.83
2023-05-06T05:42:34.104Z,2.50
2023-05-06T05:45:27.822Z,1.83
2023-05-06T05:48:17.369Z,1.87
2023-05-06T05:51:06.936Z,1.80
2023-05-06T05:53:55.392Z,2.20
2023-05-06T05:56:47.204Z,1.60
2023-05-06T05:59:37.528Z,2.00
2023-05-06T06:02:27.154Z,1.67
2023-05-06T06:05:15.554Z,2.60
2023-05-06T06:08:04.090Z,1.80
2023-05-06T06:10:53.441Z,2.37
2023-05-06T06:13:47.481Z,1.90
2023-05-06T06:16:37.713Z,2.20
2023-05-06T06:19:26.202Z,2.03
2023-05-06T06:22:14.720Z,2.23
2023-05-06T06:25:03.183Z,1.60
2023-05-06T06:27:51.624Z,1.83
2023-05-06T06:30:41.864Z,2.23
2023-05-06T06:33:30.170Z,2.43
2023-05-06T06:36:18.504Z,2.10
2023-05-06T06:39:07.503Z,2.03
2023-05-06T06:41:57.416Z,1.90
2023-05-06T06:44:45.989Z,1.87
2023-05-06T06:47:35.776Z,2.17
2023-05-06T06:50:24.140Z,2.50
2023-05-06T06:53:12.773Z,2.60
2023-05-06T06:56:01.207Z,2.73
2023-05-06T06:58:51.212Z,2.10
2023-05-06T07:01:42.675Z,2.23
2023-05-06T07:04:32.538Z,2.00
2023-05-06T07:07:20.941Z,1.83
2023-05-06T07:10:10.015Z,2.37
2023-05-06T07:12:58.668Z,2.37
2023-05-06T07:15:47.130Z,2.20
2023-05-06T07:18:35.534Z,2.57
2023-05-06T07:21:25.356Z,2.20
2023-05-06T07:24:13.757Z,2.23
2023-05-06T07:27:02.411Z,2.43
2023-05-06T07:29:50.998Z,2.17
2023-05-06T07:32:41.052Z,2.10
2023-05-06T07:35:29.454Z,1.90
2023-05-06T07:38:19.158Z,2.17
2023-05-06T07:41:07.558Z,2.13
2023-05-06T07:43:55.930Z,2.47
2023-05-06T07:46:44.551Z,2.77
2023-05-06T07:49:34.140Z,2.30
2023-05-06T07:52:22.615Z,2.03
2023-05-06T07:55:12.706Z,2.20
2023-05-06T07:58:01.343Z,2.27
2023-05-06T08:00:49.746Z,2.70
2023-05-06T08:03:38.312Z,1.83
2023-05-06T08:06:27.149Z,2.40
2023-05-06T08:09:22.727Z,2.60
2023-05-06T08:12:38.516Z,1.90
2023-05-06T08:15:27.099Z,2.10
2023-05-06T08:18:22.309Z,2.70
2023-05-06T08:21:11.069Z,2.10
2023-05-06T08:23:59.551Z,1.90
2023-05-06T08:26:47.896Z,2.57
2023-05-06T08:29:37.637Z,2.10
2023-05-06T08:32:26.194Z,1.90
2023-05-06T08:35:14.605Z,2.03
2023-05-06T08:38:03.021Z,1.93
2023-05-06T08:40:53.815Z,2.97
2023-05-06T08:43:42.811Z,2.10
2023-05-06T08:46:32.817Z,1.90
2023-05-06T08:49:21.258Z,2.37
2023-05-06T08:52:09.825Z,2.13
2023-05-06T08:55:01.516Z,1.90
2023-05-06T08:57:50.590Z,1.90
2023-05-06T09:00:39.156Z,2.03
2023-05-06T09:03:29.050Z,1.83
2023-05-06T09:06:17.513Z,2.20
2023-05-06T09:09:06.493Z,1.83
2023-05-06T09:11:57.488Z,2.00
2023-05-06T09:14:46.719Z,1.93
2023-05-06T09:17:35.145Z,1.97
2023-05-06T09:20:24.870Z,2.00
2023-05-06T09:23:15.015Z,2.10
2023-05-06T09:26:03.418Z,1.93
2023-05-06T09:28:52.455Z,2.10
2023-05-06T09:31:44.935Z,1.70
2023-05-06T09:34:33.460Z,2.33
2023-05-06T09:37:23.221Z,2.20
2023-05-06T09:40:12.165Z,2.30
2023-05-06T09:43:01.333Z,2.03
2023-05-06T09:45:49.880Z,1.90
2023-05-06T09:48:38.688Z,1.83
2023-05-06T09:51:28.544Z,1.50
2023-05-06T09:54:18.685Z,2.00
2023-05-06T09:57:07.174Z,1.67
2023-05-06T09:59:55.658Z,1.90
2023-05-06T10:02:45.213Z,1.67
2023-05-06T10:05:33.936Z,2.23
2023-05-06T10:08:24.446Z,1.90
2023-05-06T10:11:14.775Z,2.10
2023-05-06T10:14:03.828Z,2.10
2023-05-06T10:16:52.871Z,2.30
2023-05-06T10:19:43.961Z,1.60
2023-05-06T10:22:40.034Z,1.93
2023-05-06T10:25:33.770Z,1.90
2023-05-06T10:28:29.889Z,1.77
2023-05-06T10:31:20.085Z,1.80
2023-05-06T10:34:09.021Z,1.80
2023-05-06T10:36:58.513Z,1.80
2023-05-06T10:39:47.354Z,1.50
2023-05-06T10:43:22.467Z,2.03
2023-05-06T10:46:13.996Z,1.60
2023-05-06T10:49:19.926Z,1.90
2023-05-06T10:52:14.302Z,1.70
2023-05-06T10:55:02.756Z,1.70
2023-05-06T10:57:55.685Z,1.80
2023-05-06T11:00:54.330Z,1.60
2023-05-06T11:03:45.154Z,1.57
2023-05-06T11:06:38.244Z,1.50
2023-05-06T11:09:28.533Z,1.50
2023-05-06T11:12:21.407Z,2.10
2023-05-06T11:15:25.925Z,1.50
2023-05-06T11:18:44.252Z,1.50
2023-05-06T11:21:42.033Z,1.40
2023-05-06T11:24:31.724Z,1.70
2023-05-06T11:27:22.587Z,1.70
2023-05-06T11:30:14.863Z,1.60
2023-05-06T11:33:05.673Z,1.60
2023-05-06T11:35:55.846Z,1.73
2023-05-06T11:38:45.036Z,1.60
2023-05-06T11:41:34.304Z,1.87
2023-05-06T11:44:27.032Z,1.60
2023-05-06T11:47:15.444Z,1.57
2023-05-06T11:50:07.574Z,1.90
2023-05-06T11:52:57.484Z,1.90
2023-05-06T11:55:46.111Z,1.70
2023-05-06T11:58:34.856Z,1.60
2023-05-06T12:01:23.397Z,1.53
2023-05-06T12:04:40.571Z,1.70
2023-05-06T12:07:28.954Z,1.80
2023-05-06T12:10:20.047Z,1.53
2023-05-06T12:13:08.519Z,1.90
2023-05-06T12:15:57.220Z,1.80
2023-05-06T12:18:45.817Z,1.63
2023-05-06T12:21:39.061Z,1.53
2023-05-06T12:24:30.623Z,1.67
2023-05-06T12:27:33.223Z,1.70
2023-05-06T12:30:30.352Z,1.67
2023-05-06T12:33:18.795Z,1.40
2023-05-06T12:36:10.486Z,1.57
2023-05-06T12:39:00.350Z,1.83
2023-05-06T12:41:49.202Z,2.00
2023-05-06T12:44:40.125Z,1.90
2023-05-06T12:47:28.599Z,1.80
2023-05-06T12:50:31.908Z,2.20
2023-05-06T12:53:32.271Z,1.93
2023-05-06T12:56:20.833Z,1.90
2023-05-06T12:59:09.223Z,1.83
2023-05-06T13:01:59.137Z,1.73
2023-05-06T13:04:47.602Z,1.97
2023-05-06T13:07:35.989Z,2.03
2023-05-06T13:10:24.421Z,1.73
2023-05-06T13:13:12.867Z,1.47
2023-05-06T13:16:01.564Z,1.63
2023-05-06T13:18:52.108Z,1.90
2023-05-06T13:21:40.975Z,1.70
2023-05-06T13:24:29.494Z,1.70
2023-05-06T13:27:18.012Z,1.73
2023-05-06T13:30:08.805Z,1.83
2023-05-06T13:32:57.880Z,1.80
2023-05-06T13:35:47.705Z,2.03
2023-05-06T13:38:36.064Z,1.90
2023-05-06T13:41:25.400Z,1.87
2023-05-06T13:44:13.899Z,1.70
2023-05-06T13:47:02.420Z,1.90
2023-05-06T13:49:50.855Z,2.33
2023-05-06T13:52:40.673Z,2.13
2023-05-06T13:55:29.246Z,2.37
2023-05-06T13:58:18.336Z,2.10
2023-05-06T14:01:07.318Z,1.90
2023-05-06T14:03:55.899Z,1.97
2023-05-06T14:06:44.279Z,2.43
2023-05-06T14:09:34.063Z,2.10
2023-05-06T14:12:23.242Z,2.63
2023-05-06T14:15:13.106Z,1.97
2023-05-06T14:18:01.793Z,2.30
2023-05-06T14:20:50.226Z,2.63
2023-05-06T14:23:38.830Z,2.20
2023-05-06T14:26:28.593Z,2.50
2023-05-06T14:29:16.940Z,2.90
2023-05-06T14:32:05.871Z,2.60
2023-05-06T14:34:54.343Z,3.37
2023-05-06T14:37:42.752Z,3.60
2023-05-06T14:40:31.251Z,3.13
2023-05-06T14:43:20.944Z,3.03
2023-05-06T14:46:09.410Z,3.87
2023-05-06T14:48:57.856Z,4.17
2023-05-06T14:51:48.105Z,4.03
2023-05-06T14:54:42.076Z,4.37
2023-05-06T14:57:30.597Z,3.30
2023-05-06T15:00:20.889Z,4.40
2023-05-06T15:03:09.355Z,5.70
2023-05-06T15:05:57.875Z,5.77
2023-05-06T15:08:46.589Z,5.00
2023-05-06T15:11:34.954Z,5.63
2023-05-06T15:14:23.358Z,6.00
2023-05-06T15:17:13.486Z,5.37
2023-05-06T15:20:02.015Z,7.27
2023-05-06T15:22:50.437Z,6.40
2023-05-06T15:25:39.019Z,5.83
2023-05-06T15:28:27.495Z,7.10
2023-05-06T15:31:15.941Z,8.30
2023-05-06T15:34:06.030Z,8.27
2023-05-06T15:36:54.805Z,7.50
2023-05-06T15:39:43.177Z,9.10
2023-05-06T15:42:31.685Z,8.57
2023-05-06T15:45:20.348Z,10.03
2023-05-06T15:48:08.878Z,12.90
2023-05-06T15:50:58.652Z,9.73
2023-05-06T15:53:47.170Z,11.60
2023-05-06T15:56:40.749Z,9.67
2023-05-06T15:59:29.890Z,10.27
2023-05-06T16:05:10.498Z,10.07
2023-05-06T16:08:00.353Z,9.23
2023-05-06T16:10:48.739Z,10.10
2023-05-06T16:13:37.112Z,9.07
2023-05-06T16:16:25.540Z,9.47
2023-05-06T16:19:13.991Z,9.17
2023-05-06T16:22:02.541Z,9.97
2023-05-06T16:24:52.319Z,10.80
2023-05-06T16:27:41.741Z,8.87
2023-05-06T16:30:30.110Z,8.60
2023-05-06T16:33:18.482Z,7.10
2023-05-06T16:36:07.748Z,6.10
2023-05-06T16:38:56.279Z,5.40
2023-05-06T16:41:46.512Z,6.10
2023-05-06T16:44:35.193Z,4.80
2023-05-06T16:47:24.317Z,5.53
2023-05-06T16:50:14.114Z,4.57
2023-05-06T16:53:02.533Z,3.80
2023-05-06T16:55:50.919Z,3.30
2023-05-06T16:58:40.698Z,3.50
2023-05-06T17:01:29.239Z,3.17
2023-05-06T17:04:17.721Z,3.00
2023-05-06T17:07:06.407Z,3.20
2023-05-06T17:09:54.787Z,2.97
2023-05-06T17:12:43.252Z,2.57
2023-05-06T17:15:33.098Z,2.87
2023-05-06T17:18:21.489Z,2.57
2023-05-06T17:21:09.828Z,2.30
2023-05-06T17:24:00.153Z,2.33
2023-05-06T17:26:48.510Z,2.03
2023-05-06T17:29:36.953Z,2.13
2023-05-06T17:32:26.797Z,2.10
2023-05-06T17:35:15.196Z,1.80
2023-05-06T17:38:03.529Z,1.80
2023-05-06T17:40:51.951Z,1.90
2023-05-06T17:43:40.294Z,1.77
2023-05-06T17:46:28.726Z,1.73
2023-05-06T17:49:18.404Z,1.70
2023-05-06T17:52:06.926Z,1.97
2023-05-06T17:55:11.185Z,1.80
2023-05-06T17:58:04.735Z,1.67
2023-05-06T18:00:53.132Z,1.70
2023-05-06T18:03:41.580Z,1.70
2023-05-06T18:06:31.265Z,1.77
2023-05-06T18:09:19.710Z,1.60
2023-05-06T18:12:08.417Z,1.50
2023-05-06T18:14:56.836Z,1.67
2023-05-06T18:17:46.079Z,1.50
2023-05-06T18:20:34.556Z,1.43
2023-05-06T18:23:24.261Z,1.40
2023-05-06T18:26:12.601Z,1.50
2023-05-06T18:29:03.118Z,1.67
2023-05-06T18:31:51.477Z,1.50
2023-05-06T18:34:40.685Z,1.50
2023-05-06T18:37:29.444Z,1.60
2023-05-06T18:40:19.425Z,1.67
2023-05-06T18:43:08.161Z,1.73
2023-05-06T18:45:56.632Z,1.70
2023-05-06T18:48:45.136Z,1.70
2023-05-06T18:51:33.539Z,1.70
2023-05-06T18:54:21.957Z,1.90
2023-05-06T18:57:12.188Z,1.50
2023-05-06T19:00:00.670Z,1.87
2023-05-06T19:02:49.188Z,1.77
2023-05-06T19:05:37.981Z,1.90
2023-05-06T19:08:26.307Z,1.60
2023-05-06T19:11:16.216Z,1.90
2023-05-06T19:14:05.945Z,1.40
2023-05-06T19:16:54.594Z,1.60
2023-05-06T19:19:45.694Z,1.63
2023-05-06T19:22:34.375Z,1.57
2023-05-06T19:25:22.704Z,1.80
2023-05-06T19:28:11.022Z,1.80
2023-05-06T19:31:00.874Z,1.80
2023-05-06T19:33:49.253Z,1.60
2023-05-06T19:36:37.610Z,1.70
2023-05-06T19:39:26.211Z,1.87
2023-05-06T19:42:15.185Z,1.90
2023-05-06T19:45:07.936Z,1.60
2023-05-06T19:47:58.146Z,1.50
2023-05-06T19:50:46.814Z,2.00
2023-05-06T19:53:35.761Z,1.63
2023-05-06T19:56:24.178Z,1.70
2023-05-06T19:59:12.994Z,1.80
2023-05-06T20:02:01.854Z,2.00
2023-05-06T20:04:51.616Z,1.93
2023-05-06T20:07:39.996Z,2.10
2023-05-06T20:10:28.899Z,1.97
2023-05-06T20:13:17.866Z,1.63
2023-05-06T20:16:06.781Z,1.90
2023-05-06T20:18:55.354Z,1.90
2023-05-06T20:21:45.094Z,2.07
2023-05-06T20:24:34.748Z,2.00
2023-05-06T20:27:23.188Z,1.53
2023-05-06T20:30:12.491Z,1.80
2023-05-06T20:33:01.256Z,1.60
2023-05-06T20:35:51.020Z,1.73
2023-05-06T20:38:40.794Z,2.00
2023-05-06T20:41:29.133Z,1.93
2023-05-06T20:44:17.448Z,1.53
2023-05-06T20:47:10.465Z,1.67
2023-05-06T20:49:59.140Z,1.60
2023-05-06T20:52:48.216Z,1.57
2023-05-06T20:55:38.019Z,1.60
2023-05-06T20:58:28.566Z,2.00
2023-05-06T21:01:17.082Z,1.87
2023-05-06T21:04:06.341Z,1.70
2023-05-06T21:06:54.730Z,1.70
2023-05-06T21:09:43.138Z,1.60
2023-05-06T21:12:34.076Z,1.60
2023-05-06T21:15:22.508Z,1.50
2023-05-06T21:18:10.962Z,1.60
2023-05-06T21:20:59.768Z,1.53
2023-05-06T21:23:48.121Z,1.60
2023-05-06T21:26:36.728Z,1.63
2023-05-06T21:29:26.418Z,1.83
2023-05-06T21:32:15.033Z,1.70
2023-05-06T21:35:04.035Z,1.73
2023-05-06T21:37:53.024Z,1.87
2023-05-06T21:40:41.386Z,1.70
2023-05-06T21:43:31.349Z,1.67
2023-05-06T21:46:21.762Z,1.67
2023-05-06T21:49:10.559Z,1.50
2023-05-06T21:51:58.967Z,1.67
2023-05-06T21:54:47.341Z,1.43
2023-05-06T21:57:35.721Z,2.03
2023-05-06T22:00:24.150Z,1.80
2023-05-06T22:03:13.971Z,1.47
2023-05-06T22:06:02.332Z,1.77
2023-05-06T22:08:50.661Z,1.67
2023-05-06T22:11:39.101Z,1.63
2023-05-06T22:14:37.342Z,1.80
2023-05-06T22:17:29.164Z,1.50
2023-05-06T22:20:18.935Z,1.90
2023-05-06T22:23:07.487Z,1.60
2023-05-06T22:25:56.121Z,1.60
2023-05-06T22:28:45.479Z,1.60
2023-05-06T22:31:33.929Z,1.50
2023-05-06T22:34:22.238Z,1.50
2023-05-06T22:37:12.219Z,1.80
2023-05-06T22:40:00.565Z,1.73
2023-05-06T22:42:49.048Z,1.80
2023-05-06T22:45:37.664Z,1.60
2023-05-06T22:48:26.122Z,1.93
2023-05-06T22:51:15.776Z,1.50
2023-05-06T22:54:05.483Z,1.53
2023-05-06T22:56:53.873Z,1.77
2023-05-06T22:59:42.622Z,1.63
2023-05-06T23:02:30.964Z,1.60
2023-05-06T23:05:19.347Z,1.50
2023-05-06T23:08:07.696Z,1.77
2023-05-06T23:10:57.360Z,1.70
2023-05-06T23:13:45.745Z,1.70
2023-05-06T23:16:34.193Z,1.40
2023-05-06T23:19:24.889Z,1.67
2023-05-06T23:22:14.196Z,1.93
2023-05-06T23:25:02.586Z,1.60
2023-05-06T23:27:52.468Z,1.80
2023-05-06T23:30:41.073Z,1.63
2023-05-06T23:33:29.407Z,1.63
2023-05-06T23:36:17.804Z,1.50
2023-05-06T23:39:06.118Z,1.70
2023-05-06T23:41:54.450Z,1.50
2023-05-06T23:44:44.110Z,1.63
2023-05-06T23:47:32.464Z,1.83
2023-05-06T23:50:20.868Z,1.80
2023-05-06T23:53:09.238Z,1.50
2023-05-06T23:55:57.520Z,2.00
2023-05-06T23:58:45.898Z,1.60
